sensor_id;sensor_type;location;lat;lon;timestamp;P1;durP1;ratioP1;P2;durP2;ratioP2
55310;SDS011;41173;52.634;-8.666;2024-01-27T16:44:34;0.00;;;0.00;;
55310;SDS011;41173;52.634;-8.666;2024-01-27T16:46:59;0.00;;;0.00;;
55310;SDS011;41173;52.634;-8.666;2024-01-27T16:49:25;0.00;;;0.00;;
55310;SDS011;41173;52.634;-8.666;2024-01-27T16:51:50;0.10;;;0.00;;
55310;SDS011;41173;52.634;-8.666;2024-01-27T16:54:16;0.10;;;0.03;;
55310;SDS011;41173;52.634;-8.666;2024-01-27T16:56:43;0.00;;;0.00;;
55310;SDS011;41173;52.634;-8.666;2024-01-27T16:59:08;0.00;;;0.00;;
55310;SDS011;41173;52.634;-8.666;2024-01-27T17:01:34;0.00;;;0.00;;
55310;SDS011;41173;52.634;-8.666;2024-01-27T17:04:00;0.05;;;0.00;;
55310;SDS011;41173;52.634;-8.666;2024-01-27T17:06:26;0.15;;;0.00;;
55310;SDS011;41173;52.634;-8.666;2024-01-27T17:08:51;0.00;;;0.00;;
55310;SDS011;41173;52.634;-8.666;2024-01-27T17:11:17;0.00;;;0.00;;
55310;SDS011;41173;52.634;-8.666;2024-01-27T17:13:42;0.00;;;0.00;;
55310;SDS011;41173;52.634;-8.666;2024-01-27T17:18:36;0.10;;;0.00;;
55310;SDS011;41173;52.634;-8.666;2024-01-27T17:21:02;0.10;;;0.10;;
55310;SDS011;41173;52.634;-8.666;2024-01-27T17:23:28;0.08;;;0.00;;
55310;SDS011;41173;52.634;-8.666;2024-01-27T17:28:24;0.13;;;0.10;;
55310;SDS011;41173;52.634;-8.666;2024-01-27T17:30:50;0.03;;;0.03;;
55310;SDS011;41173;52.634;-8.666;2024-01-27T17:33:15;0.17;;;0.10;;
55310;SDS011;41173;52.634;-8.666;2024-01-27T17:35:41;0.10;;;0.00;;
55310;SDS011;41173;52.634;-8.666;2024-01-27T17:38:06;0.00;;;0.00;;
55310;SDS011;41173;52.634;-8.666;2024-01-27T17:40:32;0.00;;;0.00;;
55310;SDS011;41173;52.634;-8.666;2024-01-27T17:45:24;0.17;;;0.10;;
55310;SDS011;41173;52.634;-8.666;2024-01-27T17:47:49;0.00;;;0.00;;
55310;SDS011;41173;52.634;-8.666;2024-01-27T17:50:17;0.10;;;0.08;;
55310;SDS011;41173;52.634;-8.666;2024-01-27T17:52:43;0.10;;;0.00;;
55310;SDS011;41173;52.634;-8.666;2024-01-27T17:55:08;0.20;;;0.00;;
55310;SDS011;41173;52.634;-8.666;2024-01-27T18:00:01;0.17;;;0.10;;
55310;SDS011;41173;52.634;-8.666;2024-01-27T18:04:52;0.00;;;0.00;;
55310;SDS011;41173;52.634;-8.666;2024-01-27T18:09:44;0.00;;;0.00;;
55310;SDS011;41173;52.634;-8.666;2024-01-27T18:12:09;0.03;;;0.00;;
55310;SDS011;41173;52.634;-8.666;2024-01-27T18:14:35;0.23;;;0.10;;
55310;SDS011;41173;52.634;-8.666;2024-01-27T18:17:00;0.03;;;0.03;;
55310;SDS011;41173;52.634;-8.666;2024-01-27T18:19:26;0.00;;;0.00;;
55310;SDS011;41173;52.634;-8.666;2024-01-27T18:21:51;0.00;;;0.00;;
55310;SDS011;41173;52.634;-8.666;2024-01-27T18:24:17;0.00;;;0.00;;
55310;SDS011;41173;52.634;-8.666;2024-01-27T18:26:43;0.00;;;0.00;;
55310;SDS011;41173;52.634;-8.666;2024-01-27T18:29:08;0.00;;;0.00;;
55310;SDS011;41173;52.634;-8.666;2024-01-27T18:31:34;0.10;;;0.00;;
55310;SDS011;41173;52.634;-8.666;2024-01-27T18:34:00;0.00;;;0.00;;
55310;SDS011;41173;52.634;-8.666;2024-01-27T18:36:26;0.10;;;0.00;;
55310;SDS011;41173;52.634;-8.666;2024-01-27T18:38:52;0.00;;;0.00;;
55310;SDS011;41173;52.634;-8.666;2024-01-27T18:41:19;0.00;;;0.00;;
55310;SDS011;41173;52.634;-8.666;2024-01-27T18:43:44;0.10;;;0.00;;
55310;SDS011;41173;52.634;-8.666;2024-01-27T18:46:10;0.00;;;0.00;;
55310;SDS011;41173;52.634;-8.666;2024-01-27T18:48:37;0.10;;;0.10;;
55310;SDS011;41173;52.634;-8.666;2024-01-27T18:51:03;0.20;;;0.20;;
55310;SDS011;41173;52.634;-8.666;2024-01-27T18:53:32;0.38;;;0.30;;
55310;SDS011;41173;52.634;-8.666;2024-01-27T18:56:01;0.40;;;0.40;;
55310;SDS011;41173;52.634;-8.666;2024-01-27T18:58:29;0.20;;;0.20;;
55310;SDS011;41173;52.634;-8.666;2024-01-27T19:00:55;0.00;;;0.00;;
55310;SDS011;41173;52.634;-8.666;2024-01-27T19:03:21;0.00;;;0.00;;
55310;SDS011;41173;52.634;-8.666;2024-01-27T19:05:47;0.00;;;0.00;;
55310;SDS011;41173;52.634;-8.666;2024-01-27T19:08:13;0.00;;;0.00;;
55310;SDS011;41173;52.634;-8.666;2024-01-27T19:10:38;0.00;;;0.00;;
55310;SDS011;41173;52.634;-8.666;2024-01-27T19:13:04;0.00;;;0.00;;
55310;SDS011;41173;52.634;-8.666;2024-01-27T19:15:29;0.00;;;0.00;;
55310;SDS011;41173;52.634;-8.666;2024-01-27T19:17:57;0.20;;;0.00;;
55310;SDS011;41173;52.634;-8.666;2024-01-27T19:20:22;0.00;;;0.00;;
55310;SDS011;41173;52.634;-8.666;2024-01-27T19:22:47;0.00;;;0.00;;
55310;SDS011;41173;52.634;-8.666;2024-01-27T19:25:15;0.00;;;0.00;;
55310;SDS011;41173;52.634;-8.666;2024-01-27T19:27:41;0.00;;;0.00;;
55310;SDS011;41173;52.634;-8.666;2024-01-27T19:30:07;0.00;;;0.00;;
55310;SDS011;41173;52.634;-8.666;2024-01-27T19:32:32;0.00;;;0.00;;
55310;SDS011;41173;52.634;-8.666;2024-01-27T19:34:58;0.00;;;0.00;;
55310;SDS011;41173;52.634;-8.666;2024-01-27T19:37:23;0.00;;;0.00;;
55310;SDS011;41173;52.634;-8.666;2024-01-27T19:39:49;0.00;;;0.00;;
55310;SDS011;41173;52.634;-8.666;2024-01-27T19:42:14;0.00;;;0.00;;
55310;SDS011;41173;52.634;-8.666;2024-01-27T19:44:40;0.00;;;0.00;;
55310;SDS011;41173;52.634;-8.666;2024-01-27T19:47:05;0.00;;;0.00;;
55310;SDS011;41173;52.634;-8.666;2024-01-27T19:49:33;0.00;;;0.00;;
55310;SDS011;41173;52.634;-8.666;2024-01-27T19:51:59;0.00;;;0.00;;
55310;SDS011;41173;52.634;-8.666;2024-01-27T19:54:25;0.00;;;0.00;;
55310;SDS011;41173;52.634;-8.666;2024-01-27T19:56:51;0.00;;;0.00;;
55310;SDS011;41173;52.634;-8.666;2024-01-27T19:59:16;0.00;;;0.00;;
55310;SDS011;41173;52.634;-8.666;2024-01-27T20:01:42;0.00;;;0.00;;
55310;SDS011;41173;52.634;-8.666;2024-01-27T20:04:07;0.00;;;0.00;;
55310;SDS011;41173;52.634;-8.666;2024-01-27T20:06:33;0.00;;;0.00;;
55310;SDS011;41173;52.634;-8.666;2024-01-27T20:08:59;0.00;;;0.00;;
55310;SDS011;41173;52.634;-8.666;2024-01-27T20:11:24;0.00;;;0.00;;
55310;SDS011;41173;52.634;-8.666;2024-01-27T20:13:50;0.00;;;0.00;;
55310;SDS011;41173;52.634;-8.666;2024-01-27T20:16:15;0.00;;;0.00;;
55310;SDS011;41173;52.634;-8.666;2024-01-27T20:18:41;0.00;;;0.00;;
55310;SDS011;41173;52.634;-8.666;2024-01-27T20:21:06;0.00;;;0.00;;
55310;SDS011;41173;52.634;-8.666;2024-01-27T20:23:31;0.00;;;0.00;;
55310;SDS011;41173;52.634;-8.666;2024-01-27T20:25:57;0.00;;;0.00;;
55310;SDS011;41173;52.634;-8.666;2024-01-27T20:28:22;0.00;;;0.00;;
55310;SDS011;41173;52.634;-8.666;2024-01-27T20:30:49;0.00;;;0.00;;
55310;SDS011;41173;52.634;-8.666;2024-01-27T20:33:15;0.00;;;0.00;;
55310;SDS011;41173;52.634;-8.666;2024-01-27T20:35:40;0.00;;;0.00;;
55310;SDS011;41173;52.634;-8.666;2024-01-27T20:38:06;0.00;;;0.00;;
55310;SDS011;41173;52.634;-8.666;2024-01-27T20:40:31;0.00;;;0.00;;
55310;SDS011;41173;52.634;-8.666;2024-01-27T20:42:58;0.00;;;0.00;;
55310;SDS011;41173;52.634;-8.666;2024-01-27T20:45:29;0.00;;;0.00;;
55310;SDS011;41173;52.634;-8.666;2024-01-27T20:47:55;0.00;;;0.00;;
55310;SDS011;41173;52.634;-8.666;2024-01-27T20:50:20;0.00;;;0.00;;
55310;SDS011;41173;52.634;-8.666;2024-01-27T20:52:45;0.00;;;0.00;;
55310;SDS011;41173;52.634;-8.666;2024-01-27T20:55:11;0.00;;;0.00;;
55310;SDS011;41173;52.634;-8.666;2024-01-27T20:57:36;0.00;;;0.00;;
55310;SDS011;41173;52.634;-8.666;2024-01-27T21:00:02;0.00;;;0.00;;
55310;SDS011;41173;52.634;-8.666;2024-01-27T21:02:28;0.00;;;0.00;;
55310;SDS011;41173;52.634;-8.666;2024-01-27T21:04:53;0.00;;;0.00;;
55310;SDS011;41173;52.634;-8.666;2024-01-27T21:07:19;0.00;;;0.00;;
55310;SDS011;41173;52.634;-8.666;2024-01-27T21:09:45;0.00;;;0.00;;
55310;SDS011;41173;52.634;-8.666;2024-01-27T21:12:10;0.00;;;0.00;;
55310;SDS011;41173;52.634;-8.666;2024-01-27T21:14:36;0.03;;;0.00;;
55310;SDS011;41173;52.634;-8.666;2024-01-27T21:17:01;0.00;;;0.00;;
55310;SDS011;41173;52.634;-8.666;2024-01-27T21:19:27;0.00;;;0.00;;
55310;SDS011;41173;52.634;-8.666;2024-01-27T21:21:52;0.00;;;0.00;;
55310;SDS011;41173;52.634;-8.666;2024-01-27T21:24:18;0.00;;;0.00;;
55310;SDS011;41173;52.634;-8.666;2024-01-27T21:26:43;0.00;;;0.00;;
55310;SDS011;41173;52.634;-8.666;2024-01-27T21:29:09;0.10;;;0.00;;
55310;SDS011;41173;52.634;-8.666;2024-01-27T21:31:35;0.00;;;0.00;;
55310;SDS011;41173;52.634;-8.666;2024-01-27T21:34:01;0.00;;;0.00;;
55310;SDS011;41173;52.634;-8.666;2024-01-27T21:36:27;0.00;;;0.00;;
55310;SDS011;41173;52.634;-8.666;2024-01-27T21:38:55;0.00;;;0.00;;
55310;SDS011;41173;52.634;-8.666;2024-01-27T21:41:23;0.00;;;0.00;;
55310;SDS011;41173;52.634;-8.666;2024-01-27T21:43:49;0.00;;;0.00;;
55310;SDS011;41173;52.634;-8.666;2024-01-27T21:46:20;0.00;;;0.00;;
55310;SDS011;41173;52.634;-8.666;2024-01-27T21:48:45;0.00;;;0.00;;
55310;SDS011;41173;52.634;-8.666;2024-01-27T21:51:11;0.00;;;0.00;;
55310;SDS011;41173;52.634;-8.666;2024-01-27T21:53:36;0.00;;;0.00;;
55310;SDS011;41173;52.634;-8.666;2024-01-27T21:56:04;0.00;;;0.00;;
55310;SDS011;41173;52.634;-8.666;2024-01-27T21:58:29;0.00;;;0.00;;
55310;SDS011;41173;52.634;-8.666;2024-01-27T22:00:54;0.03;;;0.00;;
55310;SDS011;41173;52.634;-8.666;2024-01-27T22:03:20;0.00;;;0.00;;
55310;SDS011;41173;52.634;-8.666;2024-01-27T22:05:45;0.00;;;0.00;;
55310;SDS011;41173;52.634;-8.666;2024-01-27T22:08:11;0.00;;;0.00;;
55310;SDS011;41173;52.634;-8.666;2024-01-27T22:10:37;0.20;;;0.00;;
55310;SDS011;41173;52.634;-8.666;2024-01-27T22:13:03;0.00;;;0.00;;
55310;SDS011;41173;52.634;-8.666;2024-01-27T22:15:28;0.00;;;0.00;;
55310;SDS011;41173;52.634;-8.666;2024-01-27T22:17:54;0.00;;;0.00;;
55310;SDS011;41173;52.634;-8.666;2024-01-27T22:20:19;0.00;;;0.00;;
55310;SDS011;41173;52.634;-8.666;2024-01-27T22:22:45;0.00;;;0.00;;
55310;SDS011;41173;52.634;-8.666;2024-01-27T22:25:10;0.00;;;0.00;;
55310;SDS011;41173;52.634;-8.666;2024-01-27T22:27:36;0.00;;;0.00;;
55310;SDS011;41173;52.634;-8.666;2024-01-27T22:30:07;0.00;;;0.00;;
55310;SDS011;41173;52.634;-8.666;2024-01-27T22:32:39;0.03;;;0.00;;
55310;SDS011;41173;52.634;-8.666;2024-01-27T22:35:05;0.20;;;0.00;;
55310;SDS011;41173;52.634;-8.666;2024-01-27T22:37:31;0.10;;;0.00;;
55310;SDS011;41173;52.634;-8.666;2024-01-27T22:39:57;0.10;;;0.00;;
55310;SDS011;41173;52.634;-8.666;2024-01-27T22:42:23;0.10;;;0.00;;
55310;SDS011;41173;52.634;-8.666;2024-01-27T22:44:48;0.27;;;0.03;;
55310;SDS011;41173;52.634;-8.666;2024-01-27T22:47:13;0.00;;;0.00;;
55310;SDS011;41173;52.634;-8.666;2024-01-27T22:49:39;0.00;;;0.00;;
55310;SDS011;41173;52.634;-8.666;2024-01-27T22:52:04;0.10;;;0.00;;
55310;SDS011;41173;52.634;-8.666;2024-01-27T22:54:34;0.00;;;0.00;;
55310;SDS011;41173;52.634;-8.666;2024-01-27T22:59:25;0.10;;;0.00;;
55310;SDS011;41173;52.634;-8.666;2024-01-27T23:01:51;0.00;;;0.00;;
55310;SDS011;41173;52.634;-8.666;2024-01-27T23:04:16;0.30;;;0.10;;
55310;SDS011;41173;52.634;-8.666;2024-01-27T23:06:41;0.00;;;0.00;;
55310;SDS011;41173;52.634;-8.666;2024-01-27T23:09:08;0.00;;;0.00;;
55310;SDS011;41173;52.634;-8.666;2024-01-27T23:11:34;0.00;;;0.00;;
55310;SDS011;41173;52.634;-8.666;2024-01-27T23:14:01;0.10;;;0.05;;
55310;SDS011;41173;52.634;-8.666;2024-01-27T23:16:27;0.13;;;0.05;;
55310;SDS011;41173;52.634;-8.666;2024-01-27T23:18:53;0.00;;;0.00;;
55310;SDS011;41173;52.634;-8.666;2024-01-27T23:21:18;0.50;;;0.10;;
55310;SDS011;41173;52.634;-8.666;2024-01-27T23:23:44;0.30;;;0.10;;
55310;SDS011;41173;52.634;-8.666;2024-01-27T23:26:09;0.20;;;0.03;;
55310;SDS011;41173;52.634;-8.666;2024-01-27T23:28:35;0.10;;;0.10;;
55310;SDS011;41173;52.634;-8.666;2024-01-27T23:31:01;0.00;;;0.00;;
55310;SDS011;41173;52.634;-8.666;2024-01-27T23:33:27;0.20;;;0.03;;
55310;SDS011;41173;52.634;-8.666;2024-01-27T23:35:53;0.00;;;0.00;;
55310;SDS011;41173;52.634;-8.666;2024-01-27T23:38:19;0.10;;;0.00;;
55310;SDS011;41173;52.634;-8.666;2024-01-27T23:40:45;0.20;;;0.10;;
55310;SDS011;41173;52.634;-8.666;2024-01-27T23:43:14;0.10;;;0.05;;
55310;SDS011;41173;52.634;-8.666;2024-01-27T23:45:39;0.03;;;0.00;;
55310;SDS011;41173;52.634;-8.666;2024-01-27T23:48:05;0.50;;;0.10;;
55310;SDS011;41173;52.634;-8.666;2024-01-27T23:50:31;0.20;;;0.00;;
55310;SDS011;41173;52.634;-8.666;2024-01-27T23:52:57;0.10;;;0.00;;
55310;SDS011;41173;52.634;-8.666;2024-01-27T23:55:22;0.10;;;0.10;;
55310;SDS011;41173;52.634;-8.666;2024-01-27T23:57:51;0.30;;;0.10;;
